This is the latest recevied weather packets stored in our database for station/object ED3YAB-7. If no packets are shown the sender has not sent any weather packets the latest 10 day(s).
| Time | Temp. | Humidity | Pressure | Rain* | Wind** | Luminosity | Snow |
|---|---|---|---|---|---|---|---|
| 1778232493 | 20° C | 41% | 1019.5 hPa | - | - | - | - |
| 1778230093 | 18.89° C | 40% | 1019.2 hPa | - | - | - | - |
| 1778228900 | 18.89° C | 43% | 1019.1 hPa | - | - | - | - |
| 1778228893 | 18.89° C | 43% | 1019.1 hPa | - | - | - | - |
| 1778227692 | 17.78° C | 45% | 1018.8 hPa | - | - | - | - |
| 1778226500 | 16.67° C | 48% | 1018.6 hPa | - | - | - | - |
| 1778226492 | 16.67° C | 48% | 1018.6 hPa | - | - | - | - |
| 1778225292 | 15.56° C | 51% | 1018.7 hPa | - | - | - | - |
| 1778224092 | 14.44° C | 53% | 1018.4 hPa | - | - | - | - |
| 1778222892 | 13.89° C | 56% | 1018.3 hPa | - | - | - | - |
| 1778221692 | 13.33° C | 59% | 1018.3 hPa | - | - | - | - |
| 1778220492 | 12.22° C | 61% | 1018.2 hPa | - | - | - | - |
| 1778219292 | 10.56° C | 64% | 1018.3 hPa | - | - | - | - |
| 1778218094 | 10° C | 66% | 1018.1 hPa | - | - | - | - |
| 1778216891 | 9.44° C | 67% | 1017.9 hPa | - | - | - | - |
| 1778215691 | 8.89° C | 69% | 1017.8 hPa | - | - | - | - |
| 1778214491 | 9.44° C | 69% | 1017.7 hPa | - | - | - | - |
| 1778213292 | 8.89° C | 69% | 1017.6 hPa | - | - | - | - |
| 1778212092 | 8.89° C | 68% | 1017.5 hPa | - | - | - | - |
| 1778210892 | 10° C | 66% | 1017.5 hPa | - | - | - | - |
| 1778209692 | 10° C | 66% | 1017.6 hPa | - | - | - | - |
| 1778208492 | 10.56° C | 65% | 1017.6 hPa | - | - | - | - |
| 1778207292 | 10.56° C | 66% | 1017.7 hPa | - | - | - | - |
| 1778206092 | 10.56° C | 66% | 1017.8 hPa | - | - | - | - |
| 1778204899 | 11.67° C | 66% | 1017.9 hPa | - | - | - | - |
* Rain since midnight (hover to see other rain measurements)
** Current wind speed in m/s (hover to see current wind gust speed)